Alamo, Nevada
Current Conditions -  °F | °C
As of 7:58 AM on Thursday 23 Oct 2014 (Local Time) from KINS Reporting Station
Clear Clear  
Wind Chill: 10°   Ceiling: Unl
Heat Index: 10°   Visibility: 10mi
Dew Point: -7°   Wind: 1mph
Humidity: 31%   Direction: 120°ESE
Pressure: 30.11"   Gusts: NA
Location:  37.36°N, 115.16°W
Report Text: KINS 231458Z AUTO 12001KT 10SM CLR 10/M07 A3011 RMK AO2 SLP169 T00971068 52011
Loading
Personal Weather Stations






























Interactive Weather Map
Tropical Storm Tracking
New forecast layout! Learn more

10-Day Weather Forecast

Advertisements
Track Severe Weather on mobile